Terminal Aerodrome Forecast
Issued by NWS Caribou, ME

Home | Current Version | Previous Version | Text Only | Print | Product List | Glossary On
Versions: 1 2 3 4 5 6 7 8 9 10 11 12 13 14 15 16 17
570
FTUS41 KCAR 251120
TAFCAR
TAF
KCAR 251120Z 2512/2612 32009G16KT P6SM BKN025
     FM251400 32011G18KT P6SM BKN040
     FM252300 32006KT P6SM SCT080=

USA.gov is the U.S. government's official web portal to all federal, state and local government web resources and services.